createdAt,value
2023-01-25T00:00:31.437Z,21.73
2023-01-25T00:03:18.177Z,24.50
2023-01-25T00:05:45.484Z,25.27
2023-01-25T00:08:12.286Z,25.77
2023-01-25T00:10:39.345Z,25.67
2023-01-25T00:13:06.154Z,25.67
2023-01-25T00:15:33.145Z,25.10
2023-01-25T00:17:59.895Z,23.90
2023-01-25T00:20:26.905Z,25.10
2023-01-25T00:22:53.699Z,26.20
2023-01-25T00:25:20.638Z,26.00
2023-01-25T00:27:47.452Z,26.80
2023-01-25T00:30:17.130Z,29.03
2023-01-25T00:33:18.047Z,27.43
2023-01-25T00:35:45.164Z,27.70
2023-01-25T00:38:29.902Z,26.07
2023-01-25T00:40:58.431Z,25.53
2023-01-25T00:43:25.660Z,26.00
2023-01-25T00:45:52.710Z,26.40
2023-01-25T00:48:19.603Z,25.60
2023-01-25T00:50:46.659Z,24.47
2023-01-25T00:53:13.457Z,23.17
2023-01-25T00:55:40.574Z,22.67
2023-01-25T00:58:07.331Z,21.70
2023-01-25T01:00:34.537Z,20.63
2023-01-25T01:03:01.258Z,20.63
2023-01-25T01:05:29.476Z,19.80
2023-01-25T01:07:56.462Z,21.73
2023-01-25T01:10:23.589Z,21.10
2023-01-25T01:12:51.446Z,20.63
2023-01-25T01:15:18.458Z,21.90
2023-01-25T01:17:45.431Z,21.67
2023-01-25T01:20:13.046Z,22.60
2023-01-25T01:22:39.777Z,21.83
2023-01-25T01:25:07.867Z,20.83
2023-01-25T01:27:34.763Z,20.70
2023-01-25T01:30:01.966Z,20.67
2023-01-25T01:32:28.979Z,20.73
2023-01-25T01:34:56.188Z,20.33
2023-01-25T01:37:23.349Z,19.47
2023-01-25T01:39:52.064Z,19.17
2023-01-25T01:42:18.839Z,19.60
2023-01-25T01:44:49.366Z,18.93
2023-01-25T01:47:41.937Z,18.63
2023-01-25T01:50:20.236Z,19.10
2023-01-25T01:52:47.368Z,20.13
2023-01-25T01:55:18.272Z,20.00
2023-01-25T01:57:50.138Z,18.50
2023-01-25T02:00:25.613Z,18.07
2023-01-25T02:02:54.394Z,18.07
2023-01-25T02:05:54.155Z,18.73
2023-01-25T02:08:22.100Z,18.13
2023-01-25T02:10:50.278Z,18.43
2023-01-25T02:13:19.270Z,20.57
2023-01-25T02:15:48.350Z,18.13
2023-01-25T02:18:16.182Z,17.70
2023-01-25T02:20:52.865Z,18.07
2023-01-25T02:23:30.824Z,17.70
2023-01-25T02:26:01.453Z,15.77
2023-01-25T02:28:39.284Z,16.93
2023-01-25T02:31:07.008Z,15.20
2023-01-25T02:33:33.901Z,15.40
2023-01-25T02:36:07.038Z,14.27
2023-01-25T02:38:37.262Z,14.43
2023-01-25T02:41:30.142Z,15.13
2023-01-25T02:43:57.683Z,16.57
2023-01-25T02:46:34.550Z,15.03
2023-01-25T02:49:03.561Z,15.17
2023-01-25T02:51:33.116Z,14.27
2023-01-25T02:54:01.169Z,14.33
2023-01-25T02:56:28.534Z,13.90
2023-01-25T02:58:55.417Z,14.90
2023-01-25T03:01:22.748Z,12.53
2023-01-25T03:03:50.759Z,13.77
2023-01-25T03:06:19.181Z,15.07
2023-01-25T03:08:46.171Z,14.80
2023-01-25T03:11:14.458Z,13.37
2023-01-25T03:13:42.666Z,14.43
2023-01-25T03:16:12.589Z,14.77
2023-01-25T03:18:42.508Z,14.60
2023-01-25T03:21:18.788Z,14.43
2023-01-25T03:23:47.550Z,13.30
2023-01-25T03:26:22.357Z,13.83
2023-01-25T03:29:18.482Z,14.33
2023-01-25T03:31:48.333Z,15.60
2023-01-25T03:34:15.507Z,15.00
2023-01-25T03:36:43.539Z,15.83
2023-01-25T03:39:10.410Z,15.00
2023-01-25T03:41:43.766Z,13.20
2023-01-25T03:44:13.277Z,12.83
2023-01-25T03:46:42.442Z,13.43
2023-01-25T03:49:09.619Z,12.93
2023-01-25T03:51:36.785Z,12.17
2023-01-25T03:54:04.621Z,12.37
2023-01-25T03:56:34.818Z,14.20
2023-01-25T03:59:08.118Z,14.23
2023-01-25T04:01:35.790Z,12.40
2023-01-25T04:04:03.492Z,14.17
2023-01-25T04:06:30.560Z,14.10
2023-01-25T04:08:57.680Z,13.83
2023-01-25T04:11:26.715Z,14.33
2023-01-25T04:13:54.234Z,15.20
2023-01-25T04:16:23.724Z,14.67
2023-01-25T04:19:03.319Z,15.33
2023-01-25T04:21:31.773Z,12.93
2023-01-25T04:23:58.771Z,12.90
2023-01-25T04:26:26.061Z,11.67
2023-01-25T04:28:57.794Z,12.13
2023-01-25T04:31:25.275Z,10.77
2023-01-25T04:33:52.720Z,11.10
2023-01-25T04:36:20.708Z,12.93
2023-01-25T04:38:48.236Z,16.13
2023-01-25T04:41:15.576Z,13.10
2023-01-25T04:43:44.287Z,12.83
2023-01-25T04:46:11.447Z,15.10
2023-01-25T04:48:39.275Z,15.20
2023-01-25T04:51:09.466Z,14.30
2023-01-25T04:53:36.510Z,13.57
2023-01-25T04:56:06.496Z,15.20
2023-01-25T04:58:41.496Z,13.43
2023-01-25T05:01:08.828Z,16.83
2023-01-25T05:03:35.755Z,17.10
2023-01-25T05:06:04.985Z,13.10
2023-01-25T05:08:31.782Z,13.70
2023-01-25T05:11:02.165Z,12.20
2023-01-25T05:13:58.038Z,13.03
2023-01-25T05:16:30.009Z,12.80
2023-01-25T05:18:58.043Z,12.37
2023-01-25T05:21:59.503Z,11.43
2023-01-25T05:24:41.672Z,11.60
2023-01-25T05:27:13.036Z,12.23
2023-01-25T05:29:56.465Z,13.47
2023-01-25T05:32:31.609Z,17.13
2023-01-25T05:35:00.675Z,15.43
2023-01-25T05:37:28.260Z,15.33
2023-01-25T05:40:02.556Z,14.70
2023-01-25T05:42:36.085Z,10.60
2023-01-25T05:45:04.726Z,10.70
2023-01-25T05:47:33.885Z,10.10
2023-01-25T05:50:01.133Z,10.27
2023-01-25T05:52:41.101Z,10.80
2023-01-25T05:55:08.503Z,10.63
2023-01-25T05:57:35.890Z,11.53
2023-01-25T06:00:04.057Z,10.03
2023-01-25T06:02:40.414Z,11.07
2023-01-25T06:05:10.340Z,11.40
2023-01-25T06:07:37.672Z,11.43
2023-01-25T06:10:05.275Z,12.00
2023-01-25T06:12:33.157Z,13.60
2023-01-25T06:14:59.880Z,13.57
2023-01-25T06:17:27.102Z,12.87
2023-01-25T06:20:16.757Z,13.17
2023-01-25T06:22:56.307Z,12.70
2023-01-25T06:25:23.056Z,13.80
2023-01-25T06:27:50.172Z,16.90
2023-01-25T06:30:17.195Z,14.37
2023-01-25T06:32:44.225Z,13.67
2023-01-25T06:35:11.183Z,17.57
2023-01-25T06:37:38.336Z,18.53
2023-01-25T06:40:05.645Z,13.57
2023-01-25T06:42:32.755Z,13.43
2023-01-25T06:44:59.479Z,12.00
2023-01-25T06:47:26.500Z,11.70
2023-01-25T06:49:53.358Z,12.60
2023-01-25T06:52:20.436Z,12.27
2023-01-25T06:54:47.205Z,10.27
2023-01-25T06:57:14.286Z,10.50
2023-01-25T06:59:41.079Z,10.70
2023-01-25T07:02:14.715Z,10.17
2023-01-25T07:04:42.196Z,11.97
2023-01-25T07:07:09.515Z,11.13
2023-01-25T07:09:36.506Z,10.87
2023-01-25T07:12:06.556Z,10.67
2023-01-25T07:14:33.861Z,11.73
2023-01-25T07:17:02.960Z,11.40
2023-01-25T07:19:30.737Z,11.10
2023-01-25T07:21:57.768Z,11.37
2023-01-25T07:24:27.258Z,12.33
2023-01-25T07:26:54.380Z,11.93
2023-01-25T07:29:22.049Z,12.33
2023-01-25T07:31:49.172Z,12.73
2023-01-25T07:34:16.090Z,14.67
2023-01-25T07:36:47.123Z,13.40
2023-01-25T07:39:14.211Z,14.50
2023-01-25T07:41:41.212Z,13.47
2023-01-25T07:44:12.989Z,13.10
2023-01-25T07:46:49.708Z,13.57
2023-01-25T07:49:16.735Z,13.57
2023-01-25T07:51:44.251Z,14.47
2023-01-25T07:54:12.312Z,16.17
2023-01-25T07:56:40.610Z,16.27
2023-01-25T07:59:08.388Z,14.03
2023-01-25T08:01:36.920Z,15.00
2023-01-25T08:04:04.914Z,14.00
2023-01-25T08:06:39.188Z,14.43
2023-01-25T08:09:13.490Z,15.63
2023-01-25T08:11:42.217Z,13.83
2023-01-25T08:14:09.862Z,14.57
2023-01-25T08:16:36.984Z,13.87
2023-01-25T08:19:04.848Z,15.07
2023-01-25T08:21:34.326Z,14.33
2023-01-25T08:24:04.166Z,18.37
2023-01-25T08:26:31.521Z,17.10
2023-01-25T08:28:58.427Z,14.37
2023-01-25T08:31:28.517Z,12.90
2023-01-25T08:33:56.085Z,14.20
2023-01-25T08:36:24.328Z,13.30
2023-01-25T08:38:56.676Z,13.13
2023-01-25T08:41:26.627Z,14.23
2023-01-25T08:43:55.191Z,13.13
2023-01-25T08:46:23.673Z,12.60
2023-01-25T08:48:57.686Z,13.30
2023-01-25T08:51:25.470Z,14.13
2023-01-25T08:53:52.619Z,14.17
2023-01-25T08:56:20.315Z,14.53
2023-01-25T08:58:48.581Z,13.13
2023-01-25T09:01:18.164Z,13.07
2023-01-25T09:03:47.521Z,13.47
2023-01-25T09:06:15.137Z,14.20
2023-01-25T09:08:42.850Z,13.20
2023-01-25T09:11:12.559Z,12.10
2023-01-25T09:13:43.444Z,13.53
2023-01-25T09:16:13.686Z,13.27
2023-01-25T09:18:42.114Z,13.00
2023-01-25T09:21:11.288Z,14.20
2023-01-25T09:23:50.595Z,14.70
2023-01-25T09:26:25.729Z,14.70
2023-01-25T09:28:54.433Z,15.07
2023-01-25T09:31:24.041Z,14.47
2023-01-25T09:34:11.231Z,14.10
2023-01-25T09:36:38.357Z,12.97
2023-01-25T09:39:05.553Z,14.13
2023-01-25T09:42:14.993Z,13.03
2023-01-25T09:45:21.727Z,13.13
2023-01-25T09:48:10.844Z,13.50
2023-01-25T09:50:53.173Z,12.67
2023-01-25T09:53:25.441Z,11.20
2023-01-25T09:55:55.587Z,12.20
2023-01-25T09:58:30.785Z,12.43
2023-01-25T10:01:15.674Z,11.07
2023-01-25T10:04:02.126Z,11.77
2023-01-25T10:06:37.597Z,11.37
2023-01-25T10:09:13.642Z,12.40
2023-01-25T10:11:40.856Z,11.53
2023-01-25T10:14:19.423Z,12.20
2023-01-25T10:16:46.161Z,11.87
2023-01-25T10:19:34.940Z,11.37
2023-01-25T10:22:10.718Z,11.47
2023-01-25T10:25:13.842Z,12.73
2023-01-25T10:28:02.039Z,12.97
2023-01-25T10:30:50.488Z,13.57
2023-01-25T10:33:19.777Z,13.67
2023-01-25T10:35:49.675Z,15.13
2023-01-25T10:38:32.648Z,14.47
2023-01-25T10:41:30.544Z,16.50
2023-01-25T10:44:20.525Z,14.33
2023-01-25T10:47:04.066Z,16.30
2023-01-25T10:49:51.235Z,15.67
2023-01-25T10:52:27.505Z,14.23
2023-01-25T10:55:18.431Z,15.13
2023-01-25T10:57:49.759Z,14.97
2023-01-25T11:00:30.153Z,15.23
2023-01-25T11:02:58.283Z,17.00
2023-01-25T11:05:28.168Z,15.87
2023-01-25T11:07:56.416Z,16.83
2023-01-25T11:10:37.736Z,19.37
2023-01-25T11:13:17.352Z,19.07
2023-01-25T11:15:50.768Z,21.53
2023-01-25T11:18:33.913Z,19.67
2023-01-25T11:21:11.424Z,18.67
2023-01-25T11:23:38.642Z,18.10
2023-01-25T11:26:14.954Z,18.03
2023-01-25T11:28:42.615Z,18.87
2023-01-25T11:31:12.825Z,18.00
2023-01-25T11:33:41.930Z,18.83
2023-01-25T11:36:24.008Z,19.30
2023-01-25T11:39:22.086Z,22.10
2023-01-25T11:42:13.863Z,20.83
2023-01-25T11:44:59.024Z,20.27
2023-01-25T11:47:40.045Z,19.93
2023-01-25T11:50:19.012Z,19.83
2023-01-25T11:52:58.880Z,20.20
2023-01-25T11:55:35.238Z,20.97
2023-01-25T11:58:04.791Z,21.43
2023-01-25T12:00:45.424Z,20.43
2023-01-25T12:03:27.455Z,21.93
2023-01-25T12:06:27.068Z,23.67
2023-01-25T12:09:06.857Z,21.53
2023-01-25T12:12:04.820Z,23.50
2023-01-25T12:14:31.572Z,22.83
2023-01-25T12:17:15.190Z,22.53
2023-01-25T12:19:52.977Z,22.63
2023-01-25T12:22:35.205Z,21.77
2023-01-25T12:25:13.826Z,23.83
2023-01-25T12:28:13.841Z,22.03
2023-01-25T12:30:50.033Z,23.90
2023-01-25T12:33:30.995Z,22.60
2023-01-25T12:36:06.671Z,24.13
2023-01-25T12:38:40.266Z,23.20
2023-01-25T12:41:28.514Z,23.53
2023-01-25T12:44:05.973Z,21.80
2023-01-25T12:46:40.518Z,23.13
2023-01-25T12:49:21.902Z,23.23
2023-01-25T12:51:49.675Z,23.27
2023-01-25T12:54:32.517Z,22.37
2023-01-25T12:57:04.398Z,23.20
2023-01-25T12:59:46.081Z,22.23
2023-01-25T13:02:24.631Z,22.40
2023-01-25T13:05:14.757Z,22.27
2023-01-25T13:07:58.907Z,23.43
2023-01-25T13:10:43.091Z,23.87
2023-01-25T13:13:25.409Z,23.67
2023-01-25T13:15:53.842Z,24.90
2023-01-25T13:18:30.090Z,23.87
2023-01-25T13:21:08.166Z,25.60
2023-01-25T13:23:50.657Z,24.73
2023-01-25T13:26:29.763Z,24.73
2023-01-25T13:28:59.613Z,24.83
2023-01-25T13:31:51.984Z,25.77
2023-01-25T13:34:34.939Z,25.83
2023-01-25T13:37:25.677Z,25.00
2023-01-25T13:39:54.395Z,24.83
2023-01-25T13:42:27.311Z,24.40
2023-01-25T13:45:02.003Z,26.20
2023-01-25T13:47:30.445Z,26.03
2023-01-25T13:50:21.602Z,26.03
2023-01-25T13:53:17.612Z,25.30
2023-01-25T13:55:56.704Z,26.27
2023-01-25T13:58:36.271Z,24.77
2023-01-25T14:01:07.094Z,23.43
2023-01-25T14:03:40.631Z,23.50
2023-01-25T14:06:14.585Z,21.83
2023-01-25T14:08:44.026Z,20.90
2023-01-25T14:11:11.088Z,22.87
2023-01-25T14:13:38.246Z,21.50
2023-01-25T14:16:09.198Z,20.13
2023-01-25T14:18:39.645Z,21.57
2023-01-25T14:21:22.548Z,22.33
2023-01-25T14:23:49.889Z,23.07
2023-01-25T14:26:25.339Z,22.87
2023-01-25T14:29:01.952Z,21.37
2023-01-25T14:31:36.138Z,23.10
2023-01-25T14:34:04.972Z,22.90
2023-01-25T14:36:34.669Z,23.20
2023-01-25T14:39:04.483Z,23.30
2023-01-25T14:41:37.217Z,22.03
2023-01-25T14:44:10.617Z,22.63
2023-01-25T14:46:38.880Z,21.40
2023-01-25T14:49:11.911Z,21.00
2023-01-25T14:52:14.113Z,21.97
2023-01-25T14:54:51.814Z,23.87
2023-01-25T14:57:37.360Z,23.17
2023-01-25T15:00:24.372Z,24.83
2023-01-25T15:02:55.478Z,23.77
2023-01-25T15:05:24.653Z,23.67
2023-01-25T15:08:15.656Z,24.63
2023-01-25T15:11:19.605Z,24.90
2023-01-25T15:13:46.823Z,24.40
2023-01-25T15:16:16.404Z,25.33
2023-01-25T15:18:51.784Z,24.93
2023-01-25T15:21:27.359Z,23.43
2023-01-25T15:23:56.151Z,23.47
2023-01-25T15:26:29.904Z,23.03
2023-01-25T15:29:21.105Z,23.60
2023-01-25T15:31:50.845Z,23.73
2023-01-25T15:34:21.142Z,22.97
2023-01-25T15:36:48.308Z,24.80
2023-01-25T15:39:18.013Z,23.30
2023-01-25T15:41:46.424Z,24.23
2023-01-25T15:44:13.798Z,24.63
2023-01-25T15:46:45.477Z,24.50
2023-01-25T15:49:24.919Z,25.60
2023-01-25T15:51:52.435Z,26.60
2023-01-25T15:54:19.301Z,26.20
2023-01-25T15:56:55.461Z,24.80
2023-01-25T15:59:22.447Z,25.63
2023-01-25T16:01:49.592Z,25.50
2023-01-25T16:04:16.508Z,23.73
2023-01-25T16:06:50.184Z,23.80
2023-01-25T16:09:22.955Z,23.63
2023-01-25T16:11:58.159Z,25.10
2023-01-25T16:14:29.089Z,24.07
2023-01-25T16:17:05.510Z,24.70
2023-01-25T16:19:33.547Z,23.70
2023-01-25T16:22:00.645Z,23.87
2023-01-25T16:24:27.497Z,23.77
2023-01-25T16:26:57.176Z,25.03
2023-01-25T16:29:24.465Z,24.43
2023-01-25T16:31:53.161Z,25.10
2023-01-25T16:34:21.092Z,25.80
2023-01-25T16:36:51.842Z,25.13
2023-01-25T16:39:21.690Z,24.97
2023-01-25T16:41:49.237Z,25.80
2023-01-25T16:44:16.999Z,25.90
2023-01-25T16:46:44.604Z,25.97
2023-01-25T16:49:17.009Z,26.53
2023-01-25T16:51:45.442Z,24.70
2023-01-25T16:54:12.455Z,25.60
2023-01-25T16:56:39.763Z,23.53
2023-01-25T16:59:06.954Z,26.90
2023-01-25T17:01:34.023Z,24.47
2023-01-25T17:04:00.895Z,27.10
2023-01-25T17:06:34.182Z,25.17
2023-01-25T17:09:12.622Z,24.80
2023-01-25T17:11:47.974Z,25.83
2023-01-25T17:14:18.755Z,25.63
2023-01-25T17:16:48.356Z,25.87
2023-01-25T17:19:16.891Z,26.57
2023-01-25T17:21:45.370Z,27.37
2023-01-25T17:24:15.217Z,27.50
2023-01-25T17:26:43.104Z,28.57
2023-01-25T17:29:10.452Z,30.07
2023-01-25T17:31:38.269Z,28.73
2023-01-25T17:34:07.286Z,31.43
2023-01-25T17:36:35.000Z,29.93
2023-01-25T17:39:04.956Z,30.87
2023-01-25T17:41:32.595Z,30.07
2023-01-25T17:43:59.477Z,29.93
2023-01-25T17:46:30.030Z,29.07
2023-01-25T17:48:57.789Z,29.03
2023-01-25T17:51:26.262Z,29.13
2023-01-25T17:53:53.685Z,29.30
2023-01-25T17:56:20.798Z,30.00
2023-01-25T17:58:47.922Z,29.03
2023-01-25T18:01:20.711Z,30.97
2023-01-25T18:03:49.550Z,28.80
2023-01-25T18:06:21.860Z,29.70
2023-01-25T18:08:50.757Z,28.80
2023-01-25T18:11:25.998Z,29.00
2023-01-25T18:13:59.486Z,29.00
2023-01-25T18:16:28.312Z,29.47
2023-01-25T18:18:59.596Z,29.57
2023-01-25T18:21:31.645Z,30.03
2023-01-25T18:24:27.168Z,29.10
2023-01-25T18:27:00.275Z,29.43
2023-01-25T18:29:46.373Z,29.83
2023-01-25T18:32:14.911Z,29.97
2023-01-25T18:34:42.102Z,27.53
2023-01-25T18:37:17.895Z,29.83
2023-01-25T18:39:46.205Z,28.83
2023-01-25T18:42:13.276Z,29.40
2023-01-25T18:44:40.068Z,31.33
2023-01-25T18:47:10.193Z,28.33
2023-01-25T18:49:37.082Z,30.17
2023-01-25T18:52:11.310Z,30.77
2023-01-25T18:54:39.215Z,28.43
2023-01-25T18:57:06.907Z,29.73
2023-01-25T18:59:33.787Z,29.53
2023-01-25T19:02:00.933Z,30.53
2023-01-25T19:04:27.873Z,28.73
2023-01-25T19:06:57.515Z,29.10
2023-01-25T19:09:25.529Z,28.77
2023-01-25T19:11:52.545Z,28.23
2023-01-25T19:14:19.305Z,29.97
2023-01-25T19:16:46.622Z,28.17
2023-01-25T19:19:13.771Z,28.67
2023-01-25T19:21:40.949Z,29.53
2023-01-25T19:24:13.346Z,29.57
2023-01-25T19:26:41.316Z,29.53
2023-01-25T19:29:08.321Z,30.50
2023-01-25T19:31:37.302Z,30.13
2023-01-25T19:34:06.444Z,29.17
2023-01-25T19:36:36.137Z,28.80
2023-01-25T19:39:05.501Z,30.07
2023-01-25T19:41:33.894Z,29.60
2023-01-25T19:44:02.688Z,29.93
2023-01-25T19:46:32.384Z,29.33
2023-01-25T19:49:00.680Z,29.43
2023-01-25T19:51:30.333Z,27.27
2023-01-25T19:54:03.376Z,29.83
2023-01-25T19:56:36.595Z,28.87
2023-01-25T19:59:05.751Z,28.40
2023-01-25T20:01:33.035Z,29.53
2023-01-25T20:04:00.600Z,30.17
2023-01-25T20:06:27.807Z,28.57
2023-01-25T20:08:54.687Z,29.13
2023-01-25T20:11:24.449Z,30.80
2023-01-25T20:13:52.999Z,28.67
2023-01-25T20:16:20.707Z,27.87
2023-01-25T20:18:48.930Z,27.23
2023-01-25T20:21:19.463Z,31.10
2023-01-25T20:23:49.121Z,29.30
2023-01-25T20:26:19.970Z,29.07
2023-01-25T20:28:51.569Z,30.20
2023-01-25T20:31:29.594Z,28.30
2023-01-25T20:33:58.413Z,32.23
2023-01-25T20:36:28.203Z,27.53
2023-01-25T20:38:55.230Z,30.23
2023-01-25T20:41:22.576Z,31.13
2023-01-25T20:44:00.152Z,30.40
2023-01-25T20:46:29.423Z,31.47
2023-01-25T20:48:56.345Z,31.27
2023-01-25T20:51:24.053Z,31.77
2023-01-25T20:53:51.861Z,31.50
2023-01-25T20:56:19.660Z,31.77
2023-01-25T20:58:50.661Z,32.43
2023-01-25T21:01:20.204Z,33.03
2023-01-25T21:03:47.724Z,33.07
2023-01-25T21:06:15.602Z,31.93
2023-01-25T21:08:43.191Z,33.30
2023-01-25T21:11:11.571Z,34.87
2023-01-25T21:13:38.408Z,32.97
2023-01-25T21:16:07.371Z,35.60
2023-01-25T21:18:39.800Z,31.27
2023-01-25T21:21:10.973Z,32.80
2023-01-25T21:23:40.065Z,31.97
2023-01-25T21:26:08.478Z,32.70
2023-01-25T21:28:35.400Z,31.87
2023-01-25T21:31:10.606Z,32.63
2023-01-25T21:33:37.954Z,31.60
2023-01-25T21:36:08.566Z,32.13
2023-01-25T21:38:36.018Z,31.43
2023-01-25T21:41:05.156Z,32.60
2023-01-25T21:43:55.270Z,31.80
2023-01-25T21:46:27.293Z,31.87
2023-01-25T21:49:14.464Z,30.57
2023-01-25T21:51:49.485Z,30.53
2023-01-25T21:54:22.697Z,29.80
2023-01-25T21:56:53.134Z,30.37
2023-01-25T21:59:20.371Z,30.70
2023-01-25T22:01:48.273Z,29.40
2023-01-25T22:04:16.590Z,29.93
2023-01-25T22:06:44.436Z,31.27
2023-01-25T22:09:13.258Z,30.63
2023-01-25T22:11:40.686Z,30.23
2023-01-25T22:14:07.770Z,31.27
2023-01-25T22:16:34.956Z,31.33
2023-01-25T22:19:02.523Z,31.00
2023-01-25T22:21:32.178Z,32.63
2023-01-25T22:24:01.015Z,31.40
2023-01-25T22:27:05.949Z,30.90
2023-01-25T22:29:34.242Z,28.30
2023-01-25T22:32:02.251Z,28.60
2023-01-25T22:34:29.167Z,30.70
2023-01-25T22:36:56.232Z,29.00
2023-01-25T22:39:22.967Z,30.53
2023-01-25T22:41:50.075Z,28.10
2023-01-25T22:44:16.876Z,29.10
2023-01-25T22:46:43.872Z,30.07
2023-01-25T22:49:10.665Z,30.07
2023-01-25T22:51:37.708Z,30.00
2023-01-25T22:54:05.177Z,28.77
2023-01-25T22:56:33.392Z,29.03
2023-01-25T22:59:01.200Z,32.50
2023-01-25T23:01:31.121Z,30.37
2023-01-25T23:03:58.390Z,32.33
2023-01-25T23:06:28.000Z,31.57
2023-01-25T23:08:56.527Z,32.43
2023-01-25T23:11:24.815Z,29.63
2023-01-25T23:14:13.066Z,30.90
2023-01-25T23:16:40.088Z,30.67
2023-01-25T23:19:06.928Z,29.50
2023-01-25T23:21:35.762Z,30.60
2023-01-25T23:24:04.071Z,31.30
2023-01-25T23:26:37.496Z,30.73
2023-01-25T23:29:12.679Z,31.47
2023-01-25T23:31:39.977Z,28.37
2023-01-25T23:34:07.234Z,30.30
2023-01-25T23:36:38.831Z,30.17
2023-01-25T23:39:06.198Z,30.90
2023-01-25T23:41:33.906Z,29.03
2023-01-25T23:44:00.912Z,29.73
2023-01-25T23:46:28.511Z,31.20
2023-01-25T23:48:55.602Z,32.03
2023-01-25T23:51:23.662Z,31.53
2023-01-25T23:53:50.672Z,31.20
2023-01-25T23:56:20.625Z,30.73
2023-01-25T23:58:48.095Z,30.33
